Time;durP1;ratioP1;P1;durP2;ratioP2;P2;SDS_P1;SDS_P2;PMS_P1;PMS_P2;Temp;Humidity;BMP_temperature;BMP_pressure;BME280_temperature;BME280_humidity;BME280_pressure;Samples;Min_cycle;Max_cycle;Signal;HPM_P1;HPM_P2
2022/03/26 00:00:04;;;;;;;25.10;18.63;;;;;;;9.81;65.75;102428.59;4979692;28;20233;-58
2022/03/26 00:02:31;;;;;;;24.00;18.20;;;;;;;9.83;65.68;102420.75;4981644;28;20724;-57
2022/03/26 00:04:58;;;;;;;24.50;18.80;;;;;;;9.87;65.58;102426.16;4980059;28;20308;-59
2022/03/26 00:07:24;;;;;;;25.10;17.93;;;;;;;10.02;65.19;102426.56;4985256;28;20240;-59
2022/03/26 00:09:50;;;;;;;26.53;18.63;;;;;;;9.88;65.76;102427.91;4976951;28;20238;-58
2022/03/26 00:12:17;;;;;;;28.07;20.30;;;;;;;9.85;65.73;102430.44;4971360;28;21147;-58
2022/03/26 00:14:43;;;;;;;24.03;20.13;;;;;;;9.88;65.83;102425.28;4980260;28;20230;-59
2022/03/26 00:17:11;;;;;;;36.37;21.70;;;;;;;9.84;66.38;102428.69;4981314;28;20233;-59
2022/03/26 00:19:37;;;;;;;31.13;22.07;;;;;;;9.68;67.15;102432.56;4982763;28;20229;-58
2022/03/26 00:22:04;;;;;;;32.37;22.00;;;;;;;9.69;67.48;102428.25;4983524;28;20511;-58
2022/03/26 00:24:31;;;;;;;28.13;20.07;;;;;;;9.60;68.00;102427.94;4983702;28;20265;-58
2022/03/26 00:26:57;;;;;;;27.97;19.93;;;;;;;9.47;68.39;102422.31;4985422;28;20269;-58
2022/03/26 00:29:24;;;;;;;25.90;19.53;;;;;;;9.46;68.87;102423.16;4983601;28;20262;-59
2022/03/26 00:31:50;;;;;;;26.83;19.20;;;;;;;9.42;68.96;102425.66;4979943;28;20234;-58
2022/03/26 00:34:18;;;;;;;28.47;19.77;;;;;;;9.35;69.42;102421.06;4981443;28;20233;-59
2022/03/26 00:36:44;;;;;;;27.77;20.13;;;;;;;9.29;69.70;102416.50;4981357;28;20285;-58
2022/03/26 00:39:11;;;;;;;23.63;18.60;;;;;;;9.24;69.84;102412.88;4985351;28;20241;-58
2022/03/26 00:41:37;;;;;;;27.03;20.07;;;;;;;9.19;70.10;102409.19;4986572;28;20264;-58
2022/03/26 00:44:04;;;;;;;24.90;19.03;;;;;;;9.11;70.17;102416.81;4983466;28;20264;-58
2022/03/26 00:46:30;;;;;;;28.37;18.93;;;;;;;9.06;70.74;102408.81;4981751;28;20346;-58
2022/03/26 00:48:57;;;;;;;23.13;17.83;;;;;;;9.05;70.89;102407.03;4982898;28;20304;-58
2022/03/26 00:51:24;;;;;;;26.93;19.17;;;;;;;9.06;70.83;102413.19;4979440;28;20234;-58
2022/03/26 00:53:51;;;;;;;22.50;18.53;;;;;;;9.02;71.23;102412.19;4980900;28;20624;-59
2022/03/26 00:56:17;;;;;;;25.40;17.93;;;;;;;9.01;71.36;102415.63;4982053;28;20304;-58
2022/03/26 00:58:43;;;;;;;30.27;20.40;;;;;;;9.05;71.14;102407.03;4983995;28;20249;-58
2022/03/26 01:01:11;;;;;;;28.03;19.80;;;;;;;9.10;70.91;102409.81;4990157;28;20242;-59
2022/03/26 01:03:38;;;;;;;26.30;18.87;;;;;;;9.16;71.26;102399.53;4990222;28;20233;-59
2022/03/26 01:06:05;;;;;;;29.37;19.07;;;;;;;9.13;71.27;102406.41;4979443;28;20308;-59
2022/03/26 01:08:32;;;;;;;26.60;20.23;;;;;;;9.05;71.31;102400.91;4978732;28;20249;-59
2022/03/26 01:10:59;;;;;;;28.50;19.93;;;;;;;9.05;71.65;102400.91;4983671;28;20252;-58
2022/03/26 01:13:25;;;;;;;28.23;18.43;;;;;;;9.01;71.78;102399.03;4981035;28;20230;-57
2022/03/26 01:15:52;;;;;;;25.87;20.13;;;;;;;9.00;71.74;102395.50;4982314;28;20230;-58
2022/03/26 01:18:19;;;;;;;26.23;18.90;;;;;;;8.96;71.99;102396.25;4981133;28;20292;-57
2022/03/26 01:20:45;;;;;;;27.57;19.30;;;;;;;8.96;72.23;102396.25;4980232;28;20228;-58
2022/03/26 01:23:12;;;;;;;30.27;20.67;;;;;;;8.97;72.11;102400.66;4985824;28;20288;-58
2022/03/26 01:25:40;;;;;;;24.83;19.13;;;;;;;8.91;72.21;102391.69;4984779;28;20623;-57
2022/03/26 01:28:07;;;;;;;34.53;19.50;;;;;;;8.89;72.77;102398.63;4978592;28;20284;-58
2022/03/26 01:30:33;;;;;;;26.47;19.23;;;;;;;8.89;72.70;102393.41;4981145;28;20238;-57
2022/03/26 01:33:00;;;;;;;31.50;21.07;;;;;;;8.90;72.34;102395.19;4982398;28;20249;-58
2022/03/26 01:35:26;;;;;;;27.20;19.87;;;;;;;8.88;72.38;102391.59;4981097;28;20238;-57
2022/03/26 01:37:53;;;;;;;25.83;19.53;;;;;;;8.83;72.70;102388.84;4982743;28;20222;-57
2022/03/26 01:40:19;;;;;;;26.90;19.83;;;;;;;8.82;72.77;102387.06;4982315;28;20257;-57
2022/03/26 01:42:47;;;;;;;29.37;19.70;;;;;;;8.79;72.85;102389.59;4981985;28;20237;-57
2022/03/26 01:45:14;;;;;;;25.53;20.07;;;;;;;8.81;72.95;102388.81;4982094;28;20233;-57
2022/03/26 01:47:41;;;;;;;28.83;20.60;;;;;;;8.81;72.74;102380.06;4983824;28;20272;-57
2022/03/26 01:50:08;;;;;;;28.33;20.07;;;;;;;8.75;73.14;102374.63;4987416;28;20720;-57
2022/03/26 01:52:35;;;;;;;26.03;19.33;;;;;;;8.73;73.50;102385.03;4982870;28;20865;-58
2022/03/26 01:55:01;;;;;;;26.97;18.37;;;;;;;8.72;73.22;102375.41;4983830;28;20237;-57
2022/03/26 01:57:29;;;;;;;26.63;19.20;;;;;;;8.67;73.47;102374.38;4984720;28;20638;-57
2022/03/26 01:59:56;;;;;;;29.50;19.73;;;;;;;8.66;73.50;102377.81;4984524;28;20320;-57
2022/03/26 02:02:23;;;;;;;28.10;19.87;;;;;;;8.72;73.62;102371.91;4985680;28;20440;-57
2022/03/26 02:04:49;;;;;;;26.87;19.33;;;;;;;8.67;73.45;102373.44;4986890;28;20505;-57
2022/03/26 02:07:16;;;;;;;26.20;20.33;;;;;;;8.67;73.38;102370.84;4987485;28;20301;-57
2022/03/26 02:09:43;;;;;;;28.53;20.17;;;;;;;8.59;73.41;102363.63;4986287;28;20244;-58
2022/03/26 02:12:23;;;;;;;28.43;19.17;;;;;;;8.59;73.49;102363.63;4986011;28;20317;-57
2022/03/26 02:14:50;;;;;;;29.70;20.57;;;;;;;8.57;73.63;102365.31;4984965;28;20233;-57
2022/03/26 02:17:18;;;;;;;30.60;19.30;;;;;;;8.56;73.89;102363.53;4981694;28;20772;-57
2022/03/26 02:19:49;;;;;;;28.80;19.60;;;;;;;8.50;73.48;102371.19;4982643;28;20325;-57
2022/03/26 02:22:15;;;;;;;33.27;21.33;;;;;;;8.51;73.70;102369.44;4986205;28;20236;-57
2022/03/26 02:24:42;;;;;;;35.40;20.23;;;;;;;8.50;73.88;102378.16;4986397;28;20246;-58
2022/03/26 02:27:09;;;;;;;32.30;21.17;;;;;;;8.44;74.38;102377.94;4984811;28;20295;-57
2022/03/26 02:29:35;;;;;;;25.47;19.20;;;;;;;8.44;74.47;102378.81;4985796;28;20246;-57
2022/03/26 02:32:02;;;;;;;28.37;19.73;;;;;;;8.34;74.38;102363.59;4982916;28;20249;-58
2022/03/26 02:34:29;;;;;;;31.37;20.20;;;;;;;8.35;74.69;102365.38;4987565;28;20240;-58
2022/03/26 02:36:56;;;;;;;28.07;21.90;;;;;;;8.34;74.99;102359.25;4984585;28;20238;-57
2022/03/26 02:39:23;;;;;;;28.70;19.97;;;;;;;8.38;75.07;102346.31;4997578;28;20393;-57
2022/03/26 02:41:49;;;;;;;29.00;20.07;;;;;;;8.41;74.32;102347.31;4989608;28;20237;-57
2022/03/26 02:44:16;;;;;;;29.27;20.60;;;;;;;8.44;74.96;102347.41;4986095;28;20233;-57
2022/03/26 02:46:43;;;;;;;30.00;21.70;;;;;;;8.35;75.08;102345.34;4988766;28;20237;-58
2022/03/26 02:49:09;;;;;;;29.60;22.50;;;;;;;8.36;75.53;102346.25;4985138;28;20688;-57
2022/03/26 02:51:36;;;;;;;29.80;20.10;;;;;;;8.33;75.62;102343.50;4984527;28;20280;-57
2022/03/26 02:54:04;;;;;;;29.07;21.10;;;;;;;8.29;75.56;102345.13;4983561;28;20303;-57
2022/03/26 02:56:30;;;;;;;30.17;18.57;;;;;;;8.35;75.72;102342.75;4985005;28;20233;-57
2022/03/26 02:58:56;;;;;;;26.33;20.17;;;;;;;8.26;75.98;102349.38;4990598;28;20250;-57
2022/03/26 03:01:23;;;;;;;25.97;20.53;;;;;;;8.30;76.05;102343.41;4985432;28;20284;-58
2022/03/26 03:03:50;;;;;;;28.03;19.90;;;;;;;8.30;76.23;102343.41;4983302;28;20242;-59
2022/03/26 03:06:16;;;;;;;33.13;22.20;;;;;;;8.28;76.31;102345.06;4983668;28;20242;-58
2022/03/26 03:08:43;;;;;;;29.40;21.07;;;;;;;8.29;76.64;102352.97;4985607;28;20237;-60
2022/03/26 03:11:10;;;;;;;33.53;21.87;;;;;;;8.26;76.53;102350.25;4986462;28;20238;-57
2022/03/26 03:13:38;;;;;;;29.60;21.27;;;;;;;8.15;77.20;102343.78;4982958;28;20230;-59
2022/03/26 03:16:05;;;;;;;29.40;20.57;;;;;;;8.19;77.04;102352.63;4989542;28;20875;-59
2022/03/26 03:18:31;;;;;;;33.03;22.00;;;;;;;8.16;77.35;102349.88;4987723;28;20300;-59
2022/03/26 03:20:58;;;;;;;30.10;19.87;;;;;;;8.15;77.96;102342.88;4983565;28;20234;-57
2022/03/26 03:23:24;;;;;;;31.00;22.23;;;;;;;8.17;77.90;102342.09;4984752;28;20230;-58
2022/03/26 03:25:50;;;;;;;32.00;20.60;;;;;;;8.06;78.62;102344.31;4985845;28;20234;-58
2022/03/26 03:28:18;;;;;;;28.77;22.43;;;;;;;8.07;78.84;102348.75;4989264;28;20229;-58
2022/03/26 03:30:45;;;;;;;28.33;21.03;;;;;;;8.11;79.17;102344.50;4982099;28;20241;-58
2022/03/26 03:33:12;;;;;;;27.73;19.60;;;;;;;8.01;79.52;102343.28;4985171;28;20234;-57
2022/03/26 03:35:39;;;;;;;29.03;20.60;;;;;;;8.08;79.50;102349.63;4983642;28;20234;-57
2022/03/26 03:38:05;;;;;;;30.07;20.23;;;;;;;7.88;79.28;102343.69;4982840;28;20238;-58
2022/03/26 03:40:32;;;;;;;29.23;20.27;;;;;;;7.81;80.30;102341.69;4992686;28;20230;-58
2022/03/26 03:42:58;;;;;;;31.43;21.70;;;;;;;7.75;80.36;102341.44;4984670;28;20258;-57
2022/03/26 03:45:26;;;;;;;33.63;22.37;;;;;;;7.77;81.19;102350.25;4977784;28;20916;-57
2022/03/26 03:47:53;;;;;;;28.73;21.10;;;;;;;7.74;81.57;102342.28;4980564;28;20704;-58
2022/03/26 03:50:19;;;;;;;34.80;23.73;;;;;;;7.73;81.55;102348.38;4971861;23;20736;-58
2022/03/26 03:52:46;;;;;;;27.80;21.30;;;;;;;7.64;81.46;102349.78;4967188;28;20872;-59
2022/03/26 03:55:12;;;;;;;28.57;21.47;;;;;;;7.59;82.00;102346.13;4951078;28;20231;-57
2022/03/26 03:57:41;;;;;;;30.47;22.07;;;;;;;7.58;82.21;102344.34;4968315;28;20305;-62
2022/03/26 04:00:09;;;;;;;31.20;22.80;;;;;;;7.65;82.01;102343.75;4949876;28;20235;-57
2022/03/26 04:02:36;;;;;;;30.80;21.57;;;;;;;7.62;82.33;102341.00;4944880;28;20726;-56
2022/03/26 04:05:03;;;;;;;28.43;22.20;;;;;;;7.50;82.88;102340.53;4957619;28;20313;-57
2022/03/26 04:07:29;;;;;;;34.07;21.40;;;;;;;7.48;83.44;102336.13;4961986;28;20235;-57
2022/03/26 04:09:56;;;;;;;36.50;22.27;;;;;;;7.38;83.66;102337.50;4965272;28;20238;-57
2022/03/26 04:12:22;;;;;;;36.10;23.40;;;;;;;7.44;84.01;102332.50;4956882;28;20231;-57
2022/03/26 04:14:48;;;;;;;35.57;22.97;;;;;;;7.44;84.45;102337.72;4945384;28;20318;-57
2022/03/26 04:17:15;;;;;;;37.73;25.63;;;;;;;7.50;84.20;102332.69;4948852;28;20695;-58
2022/03/26 04:19:42;;;;;;;36.47;24.03;;;;;;;7.36;84.91;102336.53;4940895;28;20239;-57
2022/03/26 04:22:09;;;;;;;34.97;23.60;;;;;;;7.32;85.43;102337.25;4964700;28;20230;-58
2022/03/26 04:24:40;;;;;;;34.10;23.00;;;;;;;7.34;85.40;102348.66;4965895;28;20234;-57
2022/03/26 04:27:07;;;;;;;34.30;22.60;;;;;;;7.41;85.25;102350.66;4964924;28;20269;-57
2022/03/26 04:29:33;;;;;;;36.73;26.17;;;;;;;7.45;85.02;102342.09;4963937;28;21452;-57
2022/03/26 04:32:00;;;;;;;36.93;22.07;;;;;;;7.50;84.64;102343.16;4967093;28;20231;-58
2022/03/26 04:34:27;;;;;;;32.60;22.77;;;;;;;7.45;84.76;102336.00;4960250;28;20242;-57
2022/03/26 04:36:54;;;;;;;38.53;25.17;;;;;;;7.46;84.55;102336.03;4960318;28;20266;-58
2022/03/26 04:39:21;;;;;;;32.50;24.60;;;;;;;7.32;84.85;102340.75;4960239;28;20768;-58
2022/03/26 04:41:47;;;;;;;31.80;24.50;;;;;;;7.30;85.52;102341.50;4960306;28;20289;-58
2022/03/26 04:44:14;;;;;;;34.60;24.10;;;;;;;7.25;86.32;102337.84;4964250;28;20238;-58
2022/03/26 04:46:40;;;;;;;35.73;24.13;;;;;;;7.28;86.48;102353.63;4962208;28;20255;-57
2022/03/26 04:49:07;;;;;;;41.03;25.13;;;;;;;7.18;86.70;102348.03;4944739;28;20247;-57
2022/03/26 04:51:33;;;;;;;36.23;25.47;;;;;;;7.25;86.30;102346.56;4960450;28;20238;-56
2022/03/26 04:54:01;;;;;;;35.07;25.33;;;;;;;7.24;86.17;102354.34;4952023;28;20329;-57
2022/03/26 04:56:27;;;;;;;33.73;24.87;;;;;;;7.27;86.47;102357.09;4944015;28;20239;-58
2022/03/26 04:58:55;;;;;;;36.70;25.93;;;;;;;7.31;86.70;102354.66;4961157;28;20320;-57
2022/03/26 05:01:22;;;;;;;34.93;24.87;;;;;;;7.21;86.61;102356.84;4964110;28;20787;-58
2022/03/26 05:03:48;;;;;;;41.93;25.40;;;;;;;7.29;86.94;102347.56;4964724;28;20246;-58
2022/03/26 05:06:15;;;;;;;40.43;24.83;;;;;;;7.31;86.89;102348.53;4965754;28;20378;-58
2022/03/26 05:08:41;;;;;;;38.37;25.70;;;;;;;7.23;87.06;102349.94;4964622;28;20262;-57
2022/03/26 05:11:09;;;;;;;39.97;27.10;;;;;;;7.19;87.01;102354.16;4966274;28;20246;-58
2022/03/26 05:13:35;;;;;;;36.70;24.80;;;;;;;7.17;87.46;102356.72;4961040;28;20242;-57
2022/03/26 05:16:03;;;;;;;43.43;26.37;;;;;;;7.05;86.93;102357.94;4955347;28;20286;-56
2022/03/26 05:18:29;;;;;;;35.57;25.00;;;;;;;7.02;88.01;102345.69;4947787;28;20231;-62
2022/03/26 05:20:56;;;;;;;38.07;26.23;;;;;;;7.07;87.91;102346.75;4943703;28;20262;-57
2022/03/26 05:23:23;;;;;;;34.17;25.40;;;;;;;7.04;88.46;102349.22;4947829;28;20231;-61
2022/03/26 05:25:49;;;;;;;36.80;25.80;;;;;;;7.01;87.65;102356.94;4952944;28;20234;-57
2022/03/26 05:28:17;;;;;;;43.27;27.23;;;;;;;6.97;88.24;102352.44;4951895;28;20231;-58
2022/03/26 05:30:43;;;;;;;38.93;27.47;;;;;;;6.98;88.52;102348.09;4954885;28;20235;-57
2022/03/26 05:33:10;;;;;;;39.17;26.13;;;;;;;7.00;88.30;102349.06;4955113;28;20270;-57
2022/03/26 05:35:36;;;;;;;39.43;27.27;;;;;;;7.02;88.40;102356.13;4957876;28;20776;-58
2022/03/26 05:38:04;;;;;;;44.63;27.63;;;;;;;7.02;88.17;102357.81;4966073;28;20227;-58
2022/03/26 05:40:30;;;;;;;39.83;25.17;;;;;;;6.98;88.08;102363.75;4966421;28;20289;-59
2022/03/26 05:42:56;;;;;;;37.03;24.10;;;;;;;6.90;88.66;102353.91;4973829;28;20237;-57
2022/03/26 05:45:24;;;;;;;44.63;27.83;;;;;;;7.01;88.40;102350.84;4963426;28;20673;-57
2022/03/26 05:47:51;;;;;;;40.50;26.53;;;;;;;7.04;88.13;102359.69;4958856;28;20243;-57
2022/03/26 05:50:18;;;;;;;35.30;25.23;;;;;;;7.09;88.17;102358.16;4956305;28;20298;-57
2022/03/26 05:52:44;;;;;;;39.60;26.57;;;;;;;7.00;88.39;102356.91;4952765;28;20640;-57
2022/03/26 05:55:11;;;;;;;39.73;27.40;;;;;;;6.91;88.35;102357.41;4959157;28;20321;-57
2022/03/26 05:57:38;;;;;;;41.67;25.63;;;;;;;7.04;88.00;102358.78;4959217;28;20238;-59
2022/03/26 06:00:06;;;;;;;35.00;26.27;;;;;;;7.00;88.09;102363.00;4950480;28;20242;-57
2022/03/26 06:02:34;;;;;;;42.60;27.13;;;;;;;7.05;87.74;102366.66;4953481;28;20725;-62
2022/03/26 06:05:00;;;;;;;42.87;27.30;;;;;;;7.15;87.48;102366.22;4965511;28;20300;-60
2022/03/26 06:07:27;;;;;;;41.03;25.27;;;;;;;7.08;86.89;102372.03;4968505;28;20242;-58
2022/03/26 06:09:53;;;;;;;40.30;27.83;;;;;;;7.08;86.94;102369.41;4968834;28;20262;-57
2022/03/26 06:12:20;;;;;;;42.80;25.93;;;;;;;7.24;87.44;102367.41;4972794;28;20652;-59
2022/03/26 06:14:46;;;;;;;41.50;27.70;;;;;;;7.34;86.81;102365.22;4970461;28;20243;-58
2022/03/26 06:17:12;;;;;;;41.33;27.83;;;;;;;7.31;86.77;102361.59;4975512;28;20465;-58
2022/03/26 06:19:40;;;;;;;43.93;27.87;;;;;;;7.31;86.61;102364.22;4975431;28;20287;-59
2022/03/26 06:22:07;;;;;;;40.37;28.07;;;;;;;7.33;87.05;102354.69;4974373;28;20239;-57
2022/03/26 06:24:34;;;;;;;44.70;27.43;;;;;;;7.23;88.21;102355.16;4958051;28;20231;-58
2022/03/26 06:27:01;;;;;;;40.37;27.87;;;;;;;7.40;87.51;102357.59;4956726;28;20288;-58
2022/03/26 06:29:27;;;;;;;41.50;27.70;;;;;;;7.50;87.73;102356.22;4966610;28;20235;-57
2022/03/26 06:31:54;;;;;;;38.27;26.37;;;;;;;7.64;86.70;102359.34;4961937;28;20262;-57
2022/03/26 06:34:23;;;;;;;37.37;26.67;;;;;;;7.57;87.38;102352.13;4967837;28;20321;-58
2022/03/26 06:36:51;;;;;;;41.80;26.93;;;;;;;7.62;86.93;102351.47;4958385;28;20239;-57
2022/03/26 06:39:18;;;;;;;39.20;26.50;;;;;;;7.66;87.39;102342.03;4956494;28;20269;-57
2022/03/26 06:41:44;;;;;;;40.50;26.40;;;;;;;7.81;86.92;102346.91;4958992;28;20379;-58
2022/03/26 06:44:11;;;;;;;37.07;27.57;;;;;;;7.82;86.28;102336.50;4967360;28;20234;-57
2022/03/26 06:46:38;;;;;;;41.60;27.33;;;;;;;7.88;86.31;102338.44;4963098;28;20289;-57
2022/03/26 06:49:05;;;;;;;39.30;26.60;;;;;;;8.05;86.06;102333.81;4948560;28;20239;-57
2022/03/26 06:51:31;;;;;;;41.90;26.30;;;;;;;8.03;86.06;102331.13;4949155;28;20482;-56
2022/03/26 06:53:59;;;;;;;37.77;25.93;;;;;;;8.09;85.51;102328.75;4965538;28;20227;-59
2022/03/26 06:56:26;;;;;;;40.23;27.77;;;;;;;8.20;85.57;102336.06;4956642;28;20314;-56
2022/03/26 06:58:52;;;;;;;37.10;26.03;;;;;;;8.32;85.11;102346.97;4955988;28;20222;-56
2022/03/26 07:01:19;;;;;;;39.27;26.33;;;;;;;8.51;84.65;102349.41;4951539;28;20250;-57
2022/03/26 07:03:45;;;;;;;38.23;27.03;;;;;;;8.63;84.17;102353.25;4959467;28;20243;-57
2022/03/26 07:06:12;;;;;;;34.97;25.03;;;;;;;8.66;83.94;102340.25;4959090;28;20449;-56
2022/03/26 07:08:38;;;;;;;39.43;26.23;;;;;;;8.83;82.86;102342.59;4950519;28;20294;-57
2022/03/26 07:11:06;;;;;;;41.83;25.60;;;;;;;8.97;81.72;102340.41;4949468;28;20321;-58
2022/03/26 07:13:32;;;;;;;38.63;27.20;;;;;;;8.94;81.72;102335.06;4948717;28;20231;-57
2022/03/26 07:15:59;;;;;;;41.03;25.87;;;;;;;9.13;80.04;102340.91;4960974;28;20231;-58
2022/03/26 07:18:25;;;;;;;41.73;26.57;;;;;;;9.22;79.60;102346.41;4955956;28;20297;-56
2022/03/26 07:20:52;;;;;;;36.40;24.43;;;;;;;9.38;79.08;102353.91;4957889;28;20248;-56
2022/03/26 07:23:19;;;;;;;37.47;26.30;;;;;;;9.32;79.07;102353.69;4965395;28;20231;-57
2022/03/26 07:25:45;;;;;;;41.77;26.10;;;;;;;9.52;78.65;102354.31;4974398;28;20748;-58
2022/03/26 07:28:13;;;;;;;40.57;24.83;;;;;;;9.44;78.44;102359.34;4967013;28;20763;-57
2022/03/26 07:30:39;;;;;;;33.33;25.60;;;;;;;9.51;78.34;102363.91;4966399;28;20645;-56
2022/03/26 07:33:05;;;;;;;33.07;23.63;;;;;;;9.59;78.31;102358.88;4957836;28;20243;-57
2022/03/26 07:35:32;;;;;;;34.13;24.60;;;;;;;9.62;77.69;102352.81;4953160;28;20358;-58
2022/03/26 07:37:58;;;;;;;31.93;23.10;;;;;;;9.76;76.91;102356.75;4943739;28;20227;-60
2022/03/26 07:40:27;;;;;;;38.27;25.47;;;;;;;9.87;76.50;102351.81;4947384;28;20246;-58
2022/03/26 07:42:54;;;;;;;38.50;25.27;;;;;;;10.03;75.96;102352.25;4966347;28;20231;-58
2022/03/26 07:45:22;;;;;;;32.30;24.97;;;;;;;10.08;75.73;102349.78;4961028;28;20235;-60
2022/03/26 07:47:48;;;;;;;40.43;25.03;;;;;;;10.16;75.95;102349.97;4956525;28;20239;-57
2022/03/26 07:50:15;;;;;;;37.10;25.13;;;;;;;10.15;76.34;102337.69;4948951;28;20239;-56
2022/03/26 07:52:42;;;;;;;36.30;25.07;;;;;;;10.22;75.62;102332.66;4951759;28;20904;-57
2022/03/26 07:55:10;;;;;;;30.67;22.93;;;;;;;10.40;75.55;102328.75;4954289;28;20238;-56
2022/03/26 07:57:36;;;;;;;35.63;23.97;;;;;;;10.56;74.85;102337.88;4951097;28;20230;-57
2022/03/26 08:00:04;;;;;;;34.83;23.63;;;;;;;10.67;74.65;102333.78;4970310;28;20622;-56
2022/03/26 08:02:32;;;;;;;30.73;23.70;;;;;;;10.87;73.37;102329.00;4947191;28;20706;-56
2022/03/26 08:04:59;;;;;;;30.70;23.60;;;;;;;11.02;73.12;102346.88;4946489;28;20835;-57
2022/03/26 08:07:25;;;;;;;33.63;23.67;;;;;;;11.18;71.61;102349.00;4942699;28;20231;-57
2022/03/26 08:09:51;;;;;;;32.90;21.00;;;;;;;11.30;71.53;102344.03;4945792;28;20227;-57
2022/03/26 08:12:18;;;;;;;29.97;22.10;;;;;;;11.47;70.79;102339.09;4941990;28;20239;-57
2022/03/26 08:14:44;;;;;;;30.93;22.03;;;;;;;11.58;70.54;102348.13;4952019;28;20565;-57
2022/03/26 08:17:10;;;;;;;35.07;22.27;;;;;;;11.67;69.96;102343.03;4956446;28;20239;-57
2022/03/26 08:19:38;;;;;;;29.93;21.47;;;;;;;11.73;70.03;102342.28;4947564;28;20380;-57
2022/03/26 08:22:05;;;;;;;32.38;21.02;;;;;;;11.94;69.41;102352.41;4953641;28;20226;-58
2022/03/26 08:24:31;;;;;;;30.83;21.42;;;;;;;12.11;68.33;102350.06;4946652;28;20231;-59
2022/03/26 08:26:58;;;;;;;31.27;21.00;;;;;;;12.22;67.43;102348.53;4944846;28;20261;-57
2022/03/26 08:29:24;;;;;;;25.63;20.50;;;;;;;12.25;67.45;102348.59;4942602;28;20310;-58
2022/03/26 08:31:51;;;;;;;28.70;20.70;;;;;;;12.47;66.45;102346.34;4943424;28;20254;-58
2022/03/26 08:34:18;;;;;;;26.30;19.58;;;;;;;12.38;66.87;102344.41;4938371;28;20250;-59
2022/03/26 08:36:46;;;;;;;25.45;18.80;;;;;;;12.00;67.67;102344.59;4951083;28;20238;-58
2022/03/26 08:39:12;;;;;;;25.27;19.40;;;;;;;12.21;67.34;102341.47;4964319;28;20266;-57
2022/03/26 08:41:38;;;;;;;28.25;18.65;;;;;;;12.53;66.85;102343.78;4963121;28;20709;-58
2022/03/26 08:44:05;;;;;;;27.90;19.60;;;;;;;12.59;66.13;102344.78;4952717;28;20352;-58
2022/03/26 08:46:33;;;;;;;25.92;20.50;;;;;;;12.61;66.61;102353.59;4958935;28;20231;-61
2022/03/26 08:48:59;;;;;;;30.75;19.92;;;;;;;12.65;66.59;102350.16;4940660;28;20753;-58
2022/03/26 08:51:25;;;;;;;24.73;18.70;;;;;;;12.59;66.29;102349.16;4948583;28;20316;-59
2022/03/26 08:53:53;;;;;;;25.83;19.52;;;;;;;12.54;66.35;102353.47;4950858;28;20249;-58
2022/03/26 08:56:19;;;;;;;26.23;19.65;;;;;;;12.62;66.45;102359.75;4963248;28;20242;-57
2022/03/26 08:58:46;;;;;;;28.90;19.55;;;;;;;12.68;66.55;102349.31;4962186;28;20238;-55
2022/03/26 09:01:13;;;;;;;23.50;19.75;;;;;;;12.78;65.31;102364.41;4953963;28;20254;-57
2022/03/26 09:03:40;;;;;;;27.83;20.15;;;;;;;12.76;65.99;102360.88;4964174;28;20242;-56
2022/03/26 09:06:07;;;;;;;21.88;17.70;;;;;;;12.73;66.26;102352.91;4970270;28;20293;-55
2022/03/26 09:08:36;;;;;;;26.95;18.85;;;;;;;12.85;66.19;102358.38;4961746;28;20698;-57
2022/03/26 09:11:04;;;;;;;24.40;18.63;;;;;;;13.08;65.48;102353.44;4937882;28;20385;-56
2022/03/26 09:13:30;;;;;;;23.45;16.60;;;;;;;13.17;64.79;102359.75;4945383;28;20261;-56
2022/03/26 09:15:58;;;;;;;23.70;18.35;;;;;;;13.31;64.56;102353.81;4952627;28;20227;-56
2022/03/26 09:18:25;;;;;;;19.25;15.77;;;;;;;13.48;64.26;102355.78;4957518;28;20238;-55
2022/03/26 09:20:51;;;;;;;20.15;16.67;;;;;;;13.59;63.85;102346.28;4946331;28;20981;-55
2022/03/26 09:23:18;;;;;;;17.73;14.57;;;;;;;13.77;64.22;102359.69;4955624;28;20231;-56
2022/03/26 09:25:45;;;;;;;19.30;15.82;;;;;;;14.06;63.18;102356.47;4947346;28;20608;-56
2022/03/26 09:28:13;;;;;;;18.70;14.90;;;;;;;14.15;62.70;102348.66;4952045;28;20294;-56
2022/03/26 09:30:39;;;;;;;20.33;13.82;;;;;;;14.15;62.90;102350.41;4954745;28;20431;-56
2022/03/26 09:33:07;;;;;;;14.68;12.05;;;;;;;14.02;63.10;102347.63;4964289;28;20434;-56
2022/03/26 09:35:33;;;;;;;22.92;13.98;;;;;;;13.74;64.25;102353.47;4961315;28;20248;-58
2022/03/26 09:37:59;;;;;;;18.98;13.52;;;;;;;13.54;65.11;102358.50;4949979;28;20529;-57
2022/03/26 09:40:26;;;;;;;17.63;12.43;;;;;;;13.50;65.83;102364.59;4966206;28;20243;-57
2022/03/26 09:42:53;;;;;;;16.02;13.00;;;;;;;13.48;66.23;102368.97;4951653;28;20282;-60
2022/03/26 09:45:22;;;;;;;15.73;11.60;;;;;;;13.36;66.83;102367.06;4969355;28;20446;-59
2022/03/26 09:47:49;;;;;;;15.38;12.20;;;;;;;13.33;67.19;102367.00;4961764;28;20323;-63
2022/03/26 09:50:15;;;;;;;17.20;13.98;;;;;;;13.20;67.88;102371.22;4951342;23;20239;-58
2022/03/26 09:52:42;;;;;;;18.48;13.05;;;;;;;13.23;67.67;102373.00;4981002;28;20773;-58
2022/03/26 09:55:11;;;;;;;19.55;13.52;;;;;;;13.12;67.95;102373.72;4982244;28;20466;-59
2022/03/26 09:57:38;;;;;;;19.80;14.52;;;;;;;13.03;68.54;102362.16;4982300;28;20230;-59
2022/03/26 10:00:05;;;;;;;18.42;14.13;;;;;;;13.16;68.36;102369.38;4981579;28;20320;-59
2022/03/26 10:02:34;;;;;;;21.00;14.20;;;;;;;13.15;68.57;102367.59;4982343;28;20281;-56
2022/03/26 10:05:01;;;;;;;20.60;15.38;;;;;;;13.11;68.65;102365.78;4983018;28;20241;-58
2022/03/26 10:07:29;;;;;;;19.27;16.15;;;;;;;13.13;68.55;102364.09;4976268;28;20233;-58
2022/03/26 10:09:56;;;;;;;26.85;16.45;;;;;;;13.13;68.75;102358.81;4979825;28;20230;-59
2022/03/26 10:12:24;;;;;;;20.83;16.38;;;;;;;13.19;68.74;102364.16;4981475;28;20233;-59
2022/03/26 10:14:53;;;;;;;25.42;16.98;;;;;;;13.23;68.67;102359.78;4986485;28;20257;-57
2022/03/26 10:17:21;;;;;;;22.13;16.02;;;;;;;13.23;68.08;102358.06;4984440;28;20230;-58
2022/03/26 10:19:51;;;;;;;19.58;16.00;;;;;;;13.24;68.37;102362.50;4983815;28;20249;-58
2022/03/26 10:22:32;;;;;;;22.50;16.98;;;;;;;13.37;68.34;102353.00;4984880;28;20236;-57
2022/03/26 10:25:00;;;;;;;21.00;15.77;;;;;;;13.52;67.49;102357.63;4988011;28;20248;-58
2022/03/26 10:27:26;;;;;;;22.80;16.27;;;;;;;13.48;67.25;102355.78;4985586;28;20277;-58
2022/03/26 10:29:54;;;;;;;22.73;16.40;;;;;;;13.52;68.23;102353.22;4985747;28;20234;-57
2022/03/26 10:32:45;;;;;;;24.17;17.90;;;;;;;13.67;67.99;102347.25;4984425;28;20707;-58
2022/03/26 10:35:22;;;;;;;21.67;15.23;;;;;;;13.66;68.65;102352.50;4983657;28;20229;-58
2022/03/26 10:37:53;;;;;;;21.63;16.90;;;;;;;13.58;69.70;102357.66;4982930;28;20704;-58
2022/03/26 10:40:22;;;;;;;21.17;15.73;;;;;;;13.59;70.18;102359.47;4991448;28;20696;-57
2022/03/26 10:42:57;;;;;;;23.77;19.90;;;;;;;13.59;69.81;102364.75;4988224;28;20442;-58
2022/03/26 10:45:24;;;;;;;23.23;17.10;;;;;;;13.44;70.21;102356.59;4984221;28;20765;-58
2022/03/26 10:47:52;;;;;;;24.33;16.17;;;;;;;13.35;70.60;102352.09;4981798;28;20237;-60
2022/03/26 10:50:20;;;;;;;25.85;18.73;;;;;;;13.35;71.24;102363.53;4983849;28;20556;-58
2022/03/26 10:52:46;;;;;;;26.42;18.73;;;;;;;13.33;70.93;102359.97;4985710;28;20325;-58
2022/03/26 10:55:14;;;;;;;24.15;18.80;;;;;;;13.39;71.43;102361.84;4986535;28;20650;-59
2022/03/26 10:57:42;;;;;;;27.42;17.90;;;;;;;13.49;70.44;102369.00;4984510;28;20641;-58
2022/03/26 11:00:10;;;;;;;22.38;17.08;;;;;;;13.49;70.29;102366.38;4994952;28;20299;-58
2022/03/26 11:02:37;;;;;;;24.30;17.70;;;;;;;13.42;70.65;102367.16;4987620;28;20321;-58
2022/03/26 11:05:04;;;;;;;22.33;16.52;;;;;;;13.32;71.10;102366.13;4980493;28;20226;-58
2022/03/26 11:07:33;;;;;;;23.63;17.80;;;;;;;13.23;71.43;102359.78;4985074;28;20226;-58
2022/03/26 11:09:59;;;;;;;29.10;19.27;;;;;;;13.20;71.44;102371.22;4985544;28;20288;-57
2022/03/26 11:12:27;;;;;;;24.27;19.17;;;;;;;13.28;71.54;102364.31;4984081;28;20731;-57